EIN613 EHAM-EIDW
Flight info
| Callsign | EIN613 |
|---|---|
| Flight time | 1h 11m |
| Altitude | 34000 |
| Route | BERGI L60 PENIL UL28 LELDO M145 BAGSO BAGSO3R |
| Aircraft | A320/M-SDE3FGHIRWY/LB1 |
Departure
| Time | 2026-04-30 08:15 |
|---|---|
| Airport | Amsterdam Airport Schiphol (EHAM) |
Arrival
| Time | 2026-04-30 09:26 |
|---|---|
| Airport | Dublin Airport (EIDW) |
| Time | Latitude | Longitude | Altitude | Speed | Heading |
|---|---|---|---|---|---|
| 2026-04-30 07:52 | 52.30712 | 4.77025 | -1 ft | 0 kts | 3° |
| 2026-04-30 08:07 | 52.30707 | 4.77025 | -1 ft | 4 kts | 5° |
| 2026-04-30 08:07 | 52.30687 | 4.77025 | -1 ft | 4 kts | 353° |
| 2026-04-30 08:08 | 52.30670 | 4.77039 | -1 ft | 4 kts | 311° |
| 2026-04-30 08:08 | 52.30661 | 4.77060 | -1 ft | 0 kts | 303° |
| 2026-04-30 08:10 | 52.30650 | 4.77035 | -1 ft | 8 kts | 217° |
| 2026-04-30 08:10 | 52.30545 | 4.77092 | -1 ft | 23 kts | 148° |
| 2026-04-30 08:10 | 52.30482 | 4.77267 | -1 ft | 19 kts | 60° |
| 2026-04-30 08:11 | 52.30553 | 4.77453 | -1 ft | 20 kts | 57° |
| 2026-04-30 08:11 | 52.30656 | 4.77591 | -1 ft | 20 kts | 9° |
| 2026-04-30 08:11 | 52.30796 | 4.77601 | -1 ft | 20 kts | 4° |
| 2026-04-30 08:11 | 52.30942 | 4.77617 | -1 ft | 24 kts | 2° |
| 2026-04-30 08:12 | 52.31120 | 4.77630 | -1 ft | 27 kts | 3° |
| 2026-04-30 08:12 | 52.31308 | 4.77650 | -1 ft | 28 kts | 2° |
| 2026-04-30 08:12 | 52.31494 | 4.77597 | -1 ft | 28 kts | 319° |
| 2026-04-30 08:12 | 52.31574 | 4.77335 | -1 ft | 26 kts | 266° |
| 2026-04-30 08:13 | 52.31565 | 4.77058 | -1 ft | 23 kts | 268° |
| 2026-04-30 08:13 | 52.31559 | 4.76806 | -1 ft | 21 kts | 265° |
| 2026-04-30 08:13 | 52.31550 | 4.76563 | -1 ft | 25 kts | 266° |
| 2026-04-30 08:13 | 52.31537 | 4.76231 | -1 ft | 31 kts | 266° |
| 2026-04-30 08:14 | 52.31573 | 4.75998 | -1 ft | 16 kts | 351° |
| 2026-04-30 08:14 | 52.31654 | 4.76100 | -1 ft | 16 kts | 58° |
| 2026-04-30 08:14 | 52.31711 | 4.76251 | 0 ft | 16 kts | 60° |
| 2026-04-30 08:14 | 52.31726 | 4.76439 | -2 ft | 17 kts | 87° |
| 2026-04-30 08:15 | 52.31736 | 4.76794 | -2 ft | 64 kts | 88° |
| 2026-04-30 08:15 | 52.31771 | 4.77958 | 3 ft | 136 kts | 90° |
| 2026-04-30 08:15 | 52.31863 | 4.79604 | 599 ft | 148 kts | 73° |
| 2026-04-30 08:15 | 52.32597 | 4.80859 | 1363 ft | 170 kts | 30° |
| 2026-04-30 08:16 | 52.33863 | 4.80996 | 1649 ft | 200 kts | 359° |
| 2026-04-30 08:16 | 52.35329 | 4.80538 | 1882 ft | 228 kts | 353° |
| 2026-04-30 08:16 | 52.36912 | 4.79914 | 2439 ft | 242 kts | 352° |
| 2026-04-30 08:16 | 52.38534 | 4.79082 | 3240 ft | 251 kts | 336° |
| 2026-04-30 08:17 | 52.39952 | 4.77216 | 3723 ft | 277 kts | 317° |
| 2026-04-30 08:17 | 52.41338 | 4.74906 | 4331 ft | 290 kts | 317° |
| 2026-04-30 08:17 | 52.42763 | 4.72522 | 5164 ft | 294 kts | 316° |
| 2026-04-30 08:17 | 52.44202 | 4.70124 | 6031 ft | 296 kts | 317° |
| 2026-04-30 08:18 | 52.45661 | 4.67730 | 6896 ft | 297 kts | 320° |
| 2026-04-30 08:18 | 52.47337 | 4.65756 | 7681 ft | 297 kts | 335° |
| 2026-04-30 08:18 | 52.49228 | 4.64417 | 8471 ft | 297 kts | 343° |
| 2026-04-30 08:18 | 52.51167 | 4.63178 | 9277 ft | 301 kts | 343° |
| 2026-04-30 08:19 | 52.53100 | 4.61939 | 10047 ft | 304 kts | 343° |
| 2026-04-30 08:19 | 52.55083 | 4.60659 | 10718 ft | 312 kts | 343° |
| 2026-04-30 08:19 | 52.57183 | 4.59310 | 10910 ft | 336 kts | 343° |
| 2026-04-30 08:19 | 52.59407 | 4.57875 | 11323 ft | 349 kts | 342° |
| 2026-04-30 08:20 | 52.61680 | 4.56392 | 11988 ft | 353 kts | 342° |
| 2026-04-30 08:20 | 52.63973 | 4.54886 | 12695 ft | 356 kts | 342° |
| 2026-04-30 08:20 | 52.66240 | 4.53172 | 13403 ft | 363 kts | 333° |
| 2026-04-30 08:20 | 52.68298 | 4.50710 | 14103 ft | 370 kts | 320° |
| 2026-04-30 08:21 | 52.70006 | 4.47581 | 14712 ft | 376 kts | 307° |
| 2026-04-30 08:21 | 52.71501 | 4.44014 | 15313 ft | 379 kts | 306° |
| 2026-04-30 08:21 | 52.73001 | 4.40413 | 15905 ft | 382 kts | 306° |
| 2026-04-30 08:21 | 52.74459 | 4.36721 | 16498 ft | 387 kts | 300° |
| 2026-04-30 08:22 | 52.75551 | 4.32639 | 17061 ft | 392 kts | 289° |
| 2026-04-30 08:22 | 52.76407 | 4.28354 | 17654 ft | 395 kts | 289° |
| 2026-04-30 08:22 | 52.77275 | 4.24032 | 18234 ft | 398 kts | 289° |
| 2026-04-30 08:22 | 52.78153 | 4.19676 | 18781 ft | 401 kts | 289° |
| 2026-04-30 08:23 | 52.79037 | 4.15293 | 19298 ft | 404 kts | 289° |
| 2026-04-30 08:23 | 52.79913 | 4.10935 | 19815 ft | 406 kts | 289° |
| 2026-04-30 08:23 | 52.80805 | 4.06495 | 20349 ft | 408 kts | 289° |
| 2026-04-30 08:23 | 52.81700 | 4.02036 | 20873 ft | 410 kts | 289° |
| 2026-04-30 08:24 | 52.82599 | 3.97539 | 21392 ft | 413 kts | 289° |
| 2026-04-30 08:24 | 52.83501 | 3.93009 | 21867 ft | 417 kts | 289° |
| 2026-04-30 08:24 | 52.84410 | 3.88436 | 22337 ft | 420 kts | 289° |
| 2026-04-30 08:24 | 52.85324 | 3.83833 | 22874 ft | 422 kts | 289° |
| 2026-04-30 08:25 | 52.86238 | 3.79219 | 23383 ft | 424 kts | 289° |
| 2026-04-30 08:25 | 52.87157 | 3.74564 | 23845 ft | 427 kts | 289° |
| 2026-04-30 08:25 | 52.88076 | 3.69895 | 24323 ft | 427 kts | 289° |
| 2026-04-30 08:25 | 52.88982 | 3.65266 | 24696 ft | 430 kts | 289° |
| 2026-04-30 08:26 | 52.89906 | 3.60537 | 25031 ft | 433 kts | 289° |
| 2026-04-30 08:26 | 52.90834 | 3.55781 | 25443 ft | 434 kts | 289° |
| 2026-04-30 08:26 | 52.91767 | 3.50998 | 25769 ft | 438 kts | 288° |
| 2026-04-30 08:26 | 52.92705 | 3.46183 | 26093 ft | 441 kts | 288° |
| 2026-04-30 08:27 | 52.93646 | 3.41336 | 26453 ft | 442 kts | 288° |
| 2026-04-30 08:27 | 52.94587 | 3.36468 | 26773 ft | 445 kts | 288° |
| 2026-04-30 08:27 | 52.95528 | 3.31583 | 27159 ft | 445 kts | 288° |
| 2026-04-30 08:27 | 52.96453 | 3.26754 | 27546 ft | 446 kts | 288° |
| 2026-04-30 08:28 | 52.97393 | 3.21832 | 27820 ft | 450 kts | 288° |
| 2026-04-30 08:28 | 52.98339 | 3.16875 | 28154 ft | 451 kts | 288° |
| 2026-04-30 08:28 | 52.99287 | 3.11895 | 28414 ft | 455 kts | 288° |
| 2026-04-30 08:28 | 53.00243 | 3.06874 | 28718 ft | 457 kts | 288° |
| 2026-04-30 08:29 | 53.01201 | 3.01839 | 29095 ft | 457 kts | 287° |
| 2026-04-30 08:29 | 53.02161 | 2.96784 | 29370 ft | 460 kts | 287° |
| 2026-04-30 08:29 | 53.03120 | 2.91720 | 29712 ft | 460 kts | 287° |
| 2026-04-30 08:29 | 53.04079 | 2.86635 | 30048 ft | 461 kts | 287° |
| 2026-04-30 08:30 | 53.05023 | 2.81596 | 30253 ft | 465 kts | 287° |
| 2026-04-30 08:30 | 53.05982 | 2.76458 | 30527 ft | 466 kts | 287° |
| 2026-04-30 08:30 | 53.06944 | 2.71294 | 30706 ft | 470 kts | 287° |
| 2026-04-30 08:30 | 53.07909 | 2.66102 | 30934 ft | 470 kts | 287° |
| 2026-04-30 08:31 | 53.08872 | 2.60902 | 31176 ft | 471 kts | 287° |
| 2026-04-30 08:31 | 53.09837 | 2.55687 | 31426 ft | 471 kts | 287° |
| 2026-04-30 08:31 | 53.10753 | 2.50475 | 31776 ft | 469 kts | 282° |
| 2026-04-30 08:31 | 53.11308 | 2.45143 | 32033 ft | 468 kts | 276° |
| 2026-04-30 08:32 | 53.11744 | 2.39853 | 32303 ft | 467 kts | 276° |
| 2026-04-30 08:32 | 53.12181 | 2.34495 | 32590 ft | 467 kts | 276° |
| 2026-04-30 08:32 | 53.12616 | 2.29146 | 32897 ft | 466 kts | 276° |
| 2026-04-30 08:32 | 53.13049 | 2.23814 | 33227 ft | 464 kts | 276° |
| 2026-04-30 08:33 | 53.13480 | 2.18493 | 33508 ft | 464 kts | 276° |
| 2026-04-30 08:33 | 53.13910 | 2.13169 | 33786 ft | 464 kts | 276° |
| 2026-04-30 08:33 | 53.14335 | 2.07851 | 34058 ft | 463 kts | 276° |
| 2026-04-30 08:33 | 53.14753 | 2.02532 | 34343 ft | 463 kts | 276° |
| 2026-04-30 08:34 | 53.15165 | 1.97255 | 34395 ft | 456 kts | 276° |
| 2026-04-30 08:34 | 53.15970 | 1.86931 | 34399 ft | 451 kts | 276° |
| 2026-04-30 08:35 | 53.16768 | 1.76586 | 34393 ft | 450 kts | 276° |
| 2026-04-30 08:35 | 53.17558 | 1.66245 | 34393 ft | 450 kts | 275° |
| 2026-04-30 08:36 | 53.18337 | 1.55900 | 34393 ft | 450 kts | 275° |
| 2026-04-30 08:36 | 53.19110 | 1.45625 | 34400 ft | 449 kts | 275° |
| 2026-04-30 08:37 | 53.19866 | 1.35298 | 34395 ft | 448 kts | 275° |
| 2026-04-30 08:37 | 53.20617 | 1.24983 | 34393 ft | 448 kts | 275° |
| 2026-04-30 08:38 | 53.21363 | 1.14676 | 34386 ft | 447 kts | 275° |
| 2026-04-30 08:38 | 53.22092 | 1.04441 | 34382 ft | 447 kts | 275° |
| 2026-04-30 08:39 | 53.22812 | 0.94137 | 34383 ft | 447 kts | 274° |
| 2026-04-30 08:39 | 53.23529 | 0.83831 | 34377 ft | 447 kts | 274° |
| 2026-04-30 08:40 | 53.24243 | 0.73528 | 34366 ft | 447 kts | 274° |
| 2026-04-30 08:40 | 53.24938 | 0.63210 | 34368 ft | 447 kts | 274° |
| 2026-04-30 08:41 | 53.25613 | 0.52971 | 34374 ft | 446 kts | 274° |
| 2026-04-30 08:41 | 53.26291 | 0.42667 | 34372 ft | 447 kts | 273° |
| 2026-04-30 08:42 | 53.26967 | 0.32343 | 34355 ft | 447 kts | 273° |
| 2026-04-30 08:42 | 53.27624 | 0.22001 | 34361 ft | 448 kts | 273° |
| 2026-04-30 08:43 | 53.28271 | 0.11718 | 34357 ft | 448 kts | 273° |
| 2026-04-30 08:43 | 53.28935 | 0.01355 | 34354 ft | 449 kts | 274° |
| 2026-04-30 08:44 | 53.29912 | -0.08975 | 34348 ft | 450 kts | 277° |
| 2026-04-30 08:44 | 53.31086 | -0.19267 | 34339 ft | 451 kts | 277° |
| 2026-04-30 08:45 | 53.32206 | -0.29499 | 34335 ft | 450 kts | 277° |
| 2026-04-30 08:45 | 53.33253 | -0.39819 | 34332 ft | 450 kts | 276° |
| 2026-04-30 08:46 | 53.34278 | -0.50143 | 34331 ft | 450 kts | 276° |
| 2026-04-30 08:46 | 53.35299 | -0.60474 | 34335 ft | 450 kts | 276° |
| 2026-04-30 08:47 | 53.36321 | -0.70804 | 34337 ft | 450 kts | 276° |
| 2026-04-30 08:47 | 53.37329 | -0.81077 | 34345 ft | 450 kts | 276° |
| 2026-04-30 08:48 | 53.38334 | -0.91417 | 34353 ft | 450 kts | 276° |
| 2026-04-30 08:48 | 53.39332 | -1.01771 | 34351 ft | 450 kts | 276° |
| 2026-04-30 08:49 | 53.40321 | -1.12127 | 34349 ft | 450 kts | 276° |
| 2026-04-30 08:49 | 53.41294 | -1.22425 | 34343 ft | 451 kts | 276° |
| 2026-04-30 08:50 | 53.42267 | -1.32799 | 34338 ft | 451 kts | 275° |
| 2026-04-30 08:50 | 53.43227 | -1.43189 | 34336 ft | 451 kts | 275° |
| 2026-04-30 08:51 | 53.44175 | -1.53575 | 34334 ft | 451 kts | 275° |
| 2026-04-30 08:51 | 53.45113 | -1.63912 | 34331 ft | 452 kts | 275° |
| 2026-04-30 08:52 | 53.46051 | -1.74342 | 34317 ft | 453 kts | 275° |
| 2026-04-30 08:52 | 53.46980 | -1.84807 | 34316 ft | 454 kts | 275° |
| 2026-04-30 08:53 | 53.47905 | -1.95281 | 34298 ft | 454 kts | 275° |
| 2026-04-30 08:53 | 53.48819 | -2.05776 | 34303 ft | 454 kts | 275° |
| 2026-04-30 08:54 | 53.49717 | -2.16206 | 34312 ft | 454 kts | 274° |
| 2026-04-30 08:54 | 53.50610 | -2.26704 | 34311 ft | 454 kts | 274° |
| 2026-04-30 08:55 | 53.51495 | -2.37203 | 34298 ft | 454 kts | 274° |
| 2026-04-30 08:55 | 53.52368 | -2.47702 | 34299 ft | 454 kts | 274° |
| 2026-04-30 08:56 | 53.53234 | -2.58198 | 34292 ft | 453 kts | 274° |
| 2026-04-30 08:56 | 53.54089 | -2.68637 | 34296 ft | 454 kts | 274° |
| 2026-04-30 08:57 | 53.54938 | -2.79168 | 34277 ft | 455 kts | 274° |
| 2026-04-30 08:57 | 53.55774 | -2.89721 | 34261 ft | 455 kts | 274° |
| 2026-04-30 08:58 | 53.56611 | -3.00282 | 34262 ft | 456 kts | 273° |
| 2026-04-30 08:58 | 53.57432 | -3.10783 | 34288 ft | 456 kts | 273° |
| 2026-04-30 08:59 | 53.58242 | -3.21366 | 34276 ft | 456 kts | 273° |
| 2026-04-30 08:59 | 53.59045 | -3.31951 | 34270 ft | 456 kts | 273° |
| 2026-04-30 09:00 | 53.59844 | -3.42556 | 34250 ft | 456 kts | 273° |
| 2026-04-30 09:00 | 53.60637 | -3.53160 | 34250 ft | 457 kts | 273° |
| 2026-04-30 09:01 | 53.61448 | -3.63696 | 34260 ft | 458 kts | 277° |
| 2026-04-30 09:01 | 53.63416 | -3.73938 | 34269 ft | 462 kts | 289° |
| 2026-04-30 09:02 | 53.67051 | -3.89088 | 32583 ft | 466 kts | 289° |
| 2026-04-30 09:02 | 53.68239 | -3.94088 | 31978 ft | 463 kts | 289° |
| 2026-04-30 09:02 | 53.69423 | -3.99082 | 31573 ft | 455 kts | 289° |
| 2026-04-30 09:03 | 53.70595 | -4.04021 | 31031 ft | 452 kts | 288° |
| 2026-04-30 09:03 | 53.71499 | -4.09039 | 30547 ft | 442 kts | 277° |
| 2026-04-30 09:03 | 53.71879 | -4.14123 | 30045 ft | 433 kts | 269° |
| 2026-04-30 09:03 | 53.72059 | -4.19166 | 29577 ft | 428 kts | 270° |
| 2026-04-30 09:04 | 53.72245 | -4.24149 | 29122 ft | 422 kts | 270° |
| 2026-04-30 09:04 | 53.72433 | -4.29061 | 28681 ft | 417 kts | 270° |
| 2026-04-30 09:04 | 53.72615 | -4.33850 | 28257 ft | 412 kts | 269° |
| 2026-04-30 09:04 | 53.72793 | -4.38644 | 27824 ft | 407 kts | 269° |
| 2026-04-30 09:05 | 53.72968 | -4.43393 | 27408 ft | 403 kts | 269° |
| 2026-04-30 09:05 | 53.73138 | -4.48099 | 26969 ft | 400 kts | 269° |
| 2026-04-30 09:05 | 53.73304 | -4.52772 | 26540 ft | 397 kts | 268° |
| 2026-04-30 09:05 | 53.73465 | -4.57410 | 26092 ft | 395 kts | 268° |
| 2026-04-30 09:06 | 53.73624 | -4.62021 | 25661 ft | 392 kts | 268° |
| 2026-04-30 09:06 | 53.73781 | -4.66606 | 25217 ft | 390 kts | 268° |
| 2026-04-30 09:06 | 53.73936 | -4.71174 | 24767 ft | 389 kts | 268° |
| 2026-04-30 09:06 | 53.74087 | -4.75730 | 24297 ft | 388 kts | 267° |
| 2026-04-30 09:07 | 53.74235 | -4.80213 | 23837 ft | 387 kts | 267° |
| 2026-04-30 09:07 | 53.74382 | -4.84751 | 23324 ft | 386 kts | 267° |
| 2026-04-30 09:07 | 53.74530 | -4.89256 | 22869 ft | 383 kts | 267° |
| 2026-04-30 09:07 | 53.74675 | -4.93736 | 22425 ft | 380 kts | 266° |
| 2026-04-30 09:08 | 53.74817 | -4.98187 | 21986 ft | 378 kts | 266° |
| 2026-04-30 09:08 | 53.74957 | -5.02611 | 21537 ft | 376 kts | 266° |
| 2026-04-30 09:08 | 53.75095 | -5.07014 | 21107 ft | 374 kts | 266° |
| 2026-04-30 09:08 | 53.75197 | -5.11388 | 20677 ft | 369 kts | 261° |
| 2026-04-30 09:09 | 53.74907 | -5.15629 | 20257 ft | 359 kts | 250° |
| 2026-04-30 09:09 | 53.74205 | -5.19552 | 19855 ft | 351 kts | 243° |
| 2026-04-30 09:09 | 53.73408 | -5.23444 | 19466 ft | 350 kts | 243° |
| 2026-04-30 09:09 | 53.72619 | -5.27321 | 19049 ft | 349 kts | 243° |
| 2026-04-30 09:10 | 53.71834 | -5.31182 | 18651 ft | 347 kts | 243° |
| 2026-04-30 09:10 | 53.71054 | -5.35032 | 18231 ft | 346 kts | 243° |
| 2026-04-30 09:10 | 53.70279 | -5.38855 | 17835 ft | 343 kts | 243° |
| 2026-04-30 09:10 | 53.69506 | -5.42643 | 17447 ft | 340 kts | 243° |
| 2026-04-30 09:11 | 53.68736 | -5.46402 | 17050 ft | 338 kts | 243° |
| 2026-04-30 09:11 | 53.67992 | -5.50158 | 16653 ft | 339 kts | 247° |
| 2026-04-30 09:11 | 53.67474 | -5.54003 | 16268 ft | 341 kts | 250° |
| 2026-04-30 09:11 | 53.66970 | -5.57901 | 15882 ft | 339 kts | 250° |
| 2026-04-30 09:12 | 53.66467 | -5.61785 | 15487 ft | 339 kts | 250° |
| 2026-04-30 09:12 | 53.65959 | -5.65654 | 15110 ft | 338 kts | 250° |
| 2026-04-30 09:12 | 53.65448 | -5.69512 | 14725 ft | 337 kts | 250° |
| 2026-04-30 09:12 | 53.64936 | -5.73366 | 14344 ft | 336 kts | 250° |
| 2026-04-30 09:13 | 53.64426 | -5.77211 | 13957 ft | 336 kts | 250° |
| 2026-04-30 09:13 | 53.63917 | -5.81048 | 13551 ft | 335 kts | 250° |
| 2026-04-30 09:13 | 53.63410 | -5.84868 | 13153 ft | 333 kts | 250° |
| 2026-04-30 09:13 | 53.62912 | -5.88608 | 12788 ft | 331 kts | 251° |
| 2026-04-30 09:14 | 53.62412 | -5.92374 | 12409 ft | 329 kts | 251° |
| 2026-04-30 09:14 | 53.61912 | -5.96125 | 12022 ft | 327 kts | 251° |
| 2026-04-30 09:14 | 53.61412 | -5.99853 | 11639 ft | 326 kts | 251° |
| 2026-04-30 09:14 | 53.60911 | -6.03563 | 11249 ft | 324 kts | 251° |
| 2026-04-30 09:15 | 53.60411 | -6.07258 | 10855 ft | 323 kts | 252° |
| 2026-04-30 09:15 | 53.59916 | -6.10937 | 10546 ft | 319 kts | 252° |
| 2026-04-30 09:15 | 53.59442 | -6.14476 | 10356 ft | 311 kts | 252° |
| 2026-04-30 09:15 | 53.58960 | -6.18018 | 9979 ft | 310 kts | 252° |
| 2026-04-30 09:16 | 53.58478 | -6.21549 | 9597 ft | 308 kts | 252° |
| 2026-04-30 09:16 | 53.58000 | -6.25049 | 9240 ft | 306 kts | 251° |
| 2026-04-30 09:16 | 53.57525 | -6.28517 | 8878 ft | 303 kts | 251° |
| 2026-04-30 09:16 | 53.57059 | -6.31909 | 8743 ft | 292 kts | 251° |
| 2026-04-30 09:17 | 53.56614 | -6.35168 | 8607 ft | 281 kts | 251° |
| 2026-04-30 09:17 | 53.56239 | -6.38332 | 8446 ft | 273 kts | 257° |
| 2026-04-30 09:17 | 53.56017 | -6.41485 | 8138 ft | 270 kts | 257° |
| 2026-04-30 09:17 | 53.55796 | -6.44567 | 7807 ft | 268 kts | 257° |
| 2026-04-30 09:18 | 53.55571 | -6.47667 | 7479 ft | 266 kts | 257° |
| 2026-04-30 09:18 | 53.55349 | -6.50749 | 7129 ft | 266 kts | 257° |
| 2026-04-30 09:18 | 53.55127 | -6.53817 | 6831 ft | 263 kts | 257° |
| 2026-04-30 09:18 | 53.54911 | -6.56859 | 6524 ft | 260 kts | 258° |
| 2026-04-30 09:19 | 53.54699 | -6.59854 | 6250 ft | 257 kts | 257° |
| 2026-04-30 09:19 | 53.54385 | -6.62770 | 5994 ft | 248 kts | 243° |
| 2026-04-30 09:19 | 53.53520 | -6.65169 | 5738 ft | 235 kts | 218° |
| 2026-04-30 09:19 | 53.52232 | -6.66742 | 5450 ft | 226 kts | 198° |
| 2026-04-30 09:20 | 53.50767 | -6.67374 | 5101 ft | 217 kts | 180° |
| 2026-04-30 09:20 | 53.49270 | -6.67589 | 4839 ft | 215 kts | 180° |
| 2026-04-30 09:20 | 53.47795 | -6.67683 | 4584 ft | 208 kts | 166° |
| 2026-04-30 09:20 | 53.46516 | -6.66699 | 4357 ft | 204 kts | 137° |
| 2026-04-30 09:21 | 53.45761 | -6.64727 | 4149 ft | 205 kts | 109° |
| 2026-04-30 09:21 | 53.45577 | -6.62336 | 3936 ft | 207 kts | 100° |
| 2026-04-30 09:21 | 53.45449 | -6.59933 | 3732 ft | 206 kts | 101° |
| 2026-04-30 09:21 | 53.45309 | -6.57547 | 3569 ft | 204 kts | 102° |
| 2026-04-30 09:22 | 53.45169 | -6.55204 | 3426 ft | 199 kts | 101° |
| 2026-04-30 09:22 | 53.45050 | -6.52992 | 3193 ft | 187 kts | 101° |
| 2026-04-30 09:22 | 53.44942 | -6.50913 | 2983 ft | 171 kts | 101° |
| 2026-04-30 09:22 | 53.44842 | -6.49014 | 2738 ft | 155 kts | 102° |
| 2026-04-30 09:23 | 53.44751 | -6.47295 | 2545 ft | 143 kts | 101° |
| 2026-04-30 09:23 | 53.44663 | -6.45660 | 2347 ft | 139 kts | 102° |
| 2026-04-30 09:23 | 53.44578 | -6.44067 | 2193 ft | 136 kts | 101° |
| 2026-04-30 09:23 | 53.44493 | -6.42497 | 1996 ft | 135 kts | 100° |
| 2026-04-30 09:24 | 53.44410 | -6.40937 | 1815 ft | 134 kts | 98° |
| 2026-04-30 09:24 | 53.44326 | -6.39382 | 1632 ft | 134 kts | 98° |
| 2026-04-30 09:24 | 53.44243 | -6.37837 | 1440 ft | 134 kts | 98° |
| 2026-04-30 09:24 | 53.44160 | -6.36289 | 1259 ft | 133 kts | 98° |
| 2026-04-30 09:25 | 53.44076 | -6.34735 | 1066 ft | 134 kts | 96° |
| 2026-04-30 09:25 | 53.43994 | -6.33193 | 913 ft | 133 kts | 92° |
| 2026-04-30 09:25 | 53.43912 | -6.31636 | 702 ft | 134 kts | 92° |
| 2026-04-30 09:25 | 53.43830 | -6.30086 | 492 ft | 133 kts | 92° |
| 2026-04-30 09:26 | 53.43746 | -6.28546 | 321 ft | 133 kts | 94° |
| 2026-04-30 09:26 | 53.43660 | -6.27044 | 228 ft | 119 kts | 95° |
| 2026-04-30 09:26 | 53.43606 | -6.26096 | 225 ft | 39 kts | 96° |
| 2026-04-30 09:26 | 53.43588 | -6.25820 | 224 ft | 11 kts | 128° |
| 2026-04-30 09:27 | 53.43512 | -6.25760 | 226 ft | 13 kts | 155° |
| 2026-04-30 09:27 | 53.43426 | -6.25697 | 225 ft | 14 kts | 157° |
| 2026-04-30 09:27 | 53.43330 | -6.25630 | 225 ft | 16 kts | 158° |
| 2026-04-30 09:27 | 53.43223 | -6.25556 | 225 ft | 17 kts | 154° |
| 2026-04-30 09:28 | 53.43108 | -6.25467 | 225 ft | 19 kts | 158° |
| 2026-04-30 09:28 | 53.42983 | -6.25375 | 225 ft | 20 kts | 157° |
| 2026-04-30 09:28 | 53.42847 | -6.25279 | 225 ft | 22 kts | 156° |
| 2026-04-30 09:28 | 53.42716 | -6.25148 | 225 ft | 22 kts | 122° |
| 2026-04-30 09:29 | 53.42586 | -6.25022 | 225 ft | 22 kts | 156° |
| 2026-04-30 09:29 | 53.42441 | -6.24917 | 225 ft | 24 kts | 157° |
| 2026-04-30 09:29 | 53.42287 | -6.24805 | 226 ft | 25 kts | 159° |
| 2026-04-30 09:29 | 53.42217 | -6.24611 | 225 ft | 21 kts | 92° |
| 2026-04-30 09:30 | 53.42203 | -6.24405 | 225 ft | 10 kts | 81° |
| 2026-04-30 09:30 | 53.42242 | -6.24412 | 225 ft | 4 kts | 328° |
| 2026-04-30 09:30 | 53.42253 | -6.24425 | 227 ft | 0 kts | 325° |